Time;durP1;ratioP1;P1;durP2;ratioP2;P2;SDS_P1;SDS_P2;PMS_P1;PMS_P2;Temp;Humidity;BMP_temperature;BMP_pressure;BME280_temperature;BME280_humidity;BME280_pressure;Samples;Min_cycle;Max_cycle;Signal;HPM_P1;HPM_P2
2023/10/19 00:02:05;;;;;;;29.05;14.43;;;;;;;;;;6062785;23;20187;-94
2023/10/19 00:05:09;;;;;;;31.58;15.27;;;;;;;;;;6064878;23;20150;-94
2023/10/19 00:08:19;;;;;;;27.75;14.93;;;;;;;;;;6063744;23;20166;-93
2023/10/19 00:11:26;;;;;;;27.63;14.90;;;;;;;;;;6064480;23;20206;-92
2023/10/19 00:14:32;;;;;;;24.08;13.55;;;;;;;;;;6082641;23;20171;-94
2023/10/19 00:17:38;;;;;;;28.05;13.77;;;;;;;;;;6064535;23;20180;-93
2023/10/19 00:20:51;;;;;;;28.45;14.60;;;;;;;;;;6064982;23;20178;-94
2023/10/19 00:24:04;;;;;;;31.10;14.20;;;;;;;;;;6065124;23;20217;-93
2023/10/19 00:27:15;;;;;;;32.65;15.55;;;;;;;;;;6064341;23;20246;-94
2023/10/19 00:30:23;;;;;;;29.85;14.55;;;;;;;;;;6081465;23;20383;-94
2023/10/19 00:33:30;;;;;;;29.80;14.43;;;;;;;;;;6065951;23;20174;-92
2023/10/19 00:36:38;;;;;;;29.17;15.25;;;;;;;;;;6065199;23;20223;-95
2023/10/19 00:39:50;;;;;;;32.00;14.43;;;;;;;;;;6081610;23;20200;-93
2023/10/19 00:42:56;;;;;;;27.55;14.00;;;;;;;;;;6064856;23;20177;-92
2023/10/19 00:46:04;;;;;;;25.50;13.82;;;;;;;;;;6062901;23;20166;-95
2023/10/19 00:49:13;;;;;;;28.67;14.07;;;;;;;;;;6078960;23;20175;-93
2023/10/19 00:52:19;;;;;;;26.63;14.18;;;;;;;;;;6080282;23;20544;-96
2023/10/19 00:55:28;;;;;;;33.20;14.63;;;;;;;;;;6079347;23;20191;-93
2023/10/19 00:58:36;;;;;;;30.38;14.70;;;;;;;;;;6084601;23;20197;-92
2023/10/19 01:01:43;;;;;;;27.55;14.85;;;;;;;;;;6062010;23;20171;-93
2023/10/19 01:04:55;;;;;;;28.02;14.02;;;;;;;;;;6062245;23;20162;-92
2023/10/19 01:08:02;;;;;;;26.88;13.32;;;;;;;;;;6062275;23;20238;-94
2023/10/19 01:11:10;;;;;;;27.25;13.93;;;;;;;;;;6063348;23;20215;-95
2023/10/19 01:14:23;;;;;;;25.77;13.63;;;;;;;;;;6061813;23;20174;-93
2023/10/19 01:17:31;;;;;;;31.20;14.07;;;;;;;;;;6078160;23;20165;-91
2023/10/19 01:20:48;;;;;;;26.52;14.40;;;;;;;;;;6062096;23;20177;-94
2023/10/19 01:23:59;;;;;;;26.88;13.85;;;;;;;;;;6061560;23;20170;-92
2023/10/19 01:27:05;;;;;;;26.95;14.48;;;;;;;;;;6059685;23;20170;-93
2023/10/19 01:30:17;;;;;;;27.13;14.98;;;;;;;;;;6075847;23;20263;-93
2023/10/19 01:33:24;;;;;;;29.02;14.23;;;;;;;;;;6061064;23;20178;-94
2023/10/19 01:36:32;;;;;;;29.42;13.90;;;;;;;;;;6078233;23;20215;-93
2023/10/19 01:39:39;;;;;;;29.73;14.25;;;;;;;;;;6062458;23;20642;-92
2023/10/19 01:42:44;;;;;;;26.98;13.85;;;;;;;;;;6078469;23;20624;-93
2023/10/19 01:45:54;;;;;;;30.92;14.27;;;;;;;;;;6060991;23;20174;-93
2023/10/19 01:48:59;;;;;;;30.23;14.27;;;;;;;;;;6078535;23;20245;-94
2023/10/19 01:52:04;;;;;;;27.40;14.50;;;;;;;;;;6077635;23;20216;-93
2023/10/19 01:55:12;;;;;;;28.20;15.18;;;;;;;;;;6079343;23;20174;-93
2023/10/19 01:58:17;;;;;;;32.08;16.33;;;;;;;;;;6077172;23;20566;-92
2023/10/19 02:01:28;;;;;;;29.95;14.57;;;;;;;;;;6063739;23;20285;-92
2023/10/19 02:04:35;;;;;;;34.17;14.93;;;;;;;;;;6081904;23;20178;-91
2023/10/19 02:07:40;;;;;;;30.50;13.95;;;;;;;;;;6066135;23;20175;-93
2023/10/19 02:10:48;;;;;;;26.52;14.50;;;;;;;;;;6066134;23;20246;-93
2023/10/19 02:13:55;;;;;;;30.92;14.73;;;;;;;;;;6064021;23;20167;-91
2023/10/19 02:17:03;;;;;;;27.58;14.35;;;;;;;;;;6065124;23;20165;-94
2023/10/19 02:20:24;;;;;;;28.38;14.68;;;;;;;;;;6064511;23;20174;-91
2023/10/19 02:23:29;;;;;;;27.17;14.50;;;;;;;;;;6080062;23;20582;-93
2023/10/19 02:26:35;;;;;;;30.90;15.38;;;;;;;;;;6080827;23;20638;-92
2023/10/19 02:29:42;;;;;;;26.15;14.02;;;;;;;;;;6080152;23;20200;-92
2023/10/19 02:32:47;;;;;;;28.20;14.70;;;;;;;;;;6064649;23;20198;-92
2023/10/19 02:35:52;;;;;;;25.10;13.82;;;;;;;;;;6065228;23;20642;-93
2023/10/19 02:38:58;;;;;;;40.28;14.45;;;;;;;;;;6079362;23;20162;-92
2023/10/19 02:42:04;;;;;;;26.02;14.65;;;;;;;;;;6063756;23;20159;-92
2023/10/19 02:45:09;;;;;;;28.52;14.40;;;;;;;;;;6065714;23;20180;-93
2023/10/19 02:48:14;;;;;;;32.53;14.88;;;;;;;;;;6080374;23;20166;-91
2023/10/19 02:51:19;;;;;;;26.50;14.95;;;;;;;;;;6081840;23;20227;-93
2023/10/19 02:54:25;;;;;;;29.83;15.70;;;;;;;;;;6063672;23;20175;-92
2023/10/19 02:57:32;;;;;;;29.08;15.02;;;;;;;;;;6079302;23;20230;-92
2023/10/19 03:00:37;;;;;;;32.35;15.60;;;;;;;;;;6078764;23;20205;-92
2023/10/19 03:03:44;;;;;;;33.03;15.27;;;;;;;;;;6061974;23;20171;-92
2023/10/19 03:06:52;;;;;;;29.52;14.73;;;;;;;;;;6064327;23;20171;-93
2023/10/19 03:09:57;;;;;;;29.27;15.45;;;;;;;;;;6065017;23;20229;-91
2023/10/19 03:13:05;;;;;;;33.75;15.55;;;;;;;;;;6065332;23;20286;-94
2023/10/19 03:16:11;;;;;;;28.77;15.65;;;;;;;;;;6065006;23;20149;-91
2023/10/19 03:19:16;;;;;;;27.27;15.20;;;;;;;;;;6065188;23;20170;-94
2023/10/19 03:22:20;;;;;;;27.50;15.43;;;;;;;;;;6080608;23;20225;-90
2023/10/19 03:28:54;;;;;;;29.67;15.05;;;;;;;;;;6064257;23;20234;-92
2023/10/19 03:32:01;;;;;;;28.08;15.20;;;;;;;;;;6080697;23;20198;-91
2023/10/19 03:35:06;;;;;;;29.90;15.32;;;;;;;;;;6080208;23;20169;-92
2023/10/19 03:38:16;;;;;;;32.17;15.23;;;;;;;;;;6064166;23;20175;-93
2023/10/19 03:41:25;;;;;;;27.98;15.15;;;;;;;;;;6063906;23;20299;-93
2023/10/19 03:44:42;;;;;;;32.83;14.93;;;;;;;;;;6065166;23;20303;-93
2023/10/19 03:47:49;;;;;;;35.80;17.75;;;;;;;;;;6065703;23;20170;-92
2023/10/19 03:50:56;;;;;;;29.92;15.88;;;;;;;;;;6064736;23;20233;-91
2023/10/19 03:54:09;;;;;;;29.17;15.10;;;;;;;;;;6072953;23;20171;-93
2023/10/19 03:57:19;;;;;;;30.00;14.55;;;;;;;;;;6080257;23;20506;-93
2023/10/19 04:00:27;;;;;;;26.55;15.30;;;;;;;;;;6062901;23;20264;-92
2023/10/19 04:03:34;;;;;;;26.73;14.55;;;;;;;;;;6078571;23;20171;-93
2023/10/19 04:06:40;;;;;;;28.58;15.10;;;;;;;;;;6066886;23;20174;-92
2023/10/19 04:09:59;;;;;;;28.90;14.50;;;;;;;;;;6064923;23;20174;-91
2023/10/19 04:13:09;;;;;;;32.28;15.30;;;;;;;;;;6065577;23;20263;-92
2023/10/19 04:16:16;;;;;;;30.23;14.82;;;;;;;;;;6065076;23;20169;-92
2023/10/19 04:19:21;;;;;;;31.73;15.45;;;;;;;;;;6082763;23;20176;-93
2023/10/19 04:22:27;;;;;;;29.85;14.18;;;;;;;;;;6082218;23;20206;-91
2023/10/19 04:25:32;;;;;;;27.35;14.10;;;;;;;;;;6081904;23;20175;-93
2023/10/19 04:28:44;;;;;;;31.10;15.07;;;;;;;;;;6081586;23;20219;-92
2023/10/19 04:31:59;;;;;;;30.60;15.43;;;;;;;;;;6080574;23;20198;-92
2023/10/19 04:35:08;;;;;;;33.50;15.70;;;;;;;;;;6065718;23;20175;-93
2023/10/19 04:38:17;;;;;;;32.22;15.50;;;;;;;;;;6080591;23;20229;-92
2023/10/19 04:41:23;;;;;;;35.65;15.15;;;;;;;;;;6064901;23;20170;-94
2023/10/19 04:44:30;;;;;;;33.25;17.27;;;;;;;;;;6065293;23;20299;-92
2023/10/19 04:47:37;;;;;;;30.63;15.63;;;;;;;;;;6082000;23;20237;-93
2023/10/19 04:50:43;;;;;;;30.00;16.25;;;;;;;;;;6082533;23;20190;-91
2023/10/19 04:53:47;;;;;;;30.73;14.60;;;;;;;;;;6078927;23;20615;-92
2023/10/19 04:56:55;;;;;;;32.22;14.68;;;;;;;;;;6081364;23;20218;-93
2023/10/19 05:00:00;;;;;;;30.98;15.18;;;;;;;;;;6083863;23;20162;-92
2023/10/19 05:03:08;;;;;;;30.08;14.82;;;;;;;;;;6083004;23;20178;-92
2023/10/19 05:06:15;;;;;;;28.95;15.30;;;;;;;;;;6083288;23;20171;-90
2023/10/19 05:09:20;;;;;;;30.88;15.70;;;;;;;;;;6083174;23;20211;-92
2023/10/19 05:12:26;;;;;;;33.45;15.20;;;;;;;;;;6082161;23;20214;-90
2023/10/19 05:15:33;;;;;;;34.28;16.45;;;;;;;;;;6085775;23;20154;-90
2023/10/19 05:18:45;;;;;;;30.98;15.07;;;;;;;;;;6071084;23;20178;-92
2023/10/19 05:21:52;;;;;;;29.65;15.82;;;;;;;;;;6083782;23;20249;-91
2023/10/19 05:24:58;;;;;;;33.13;16.17;;;;;;;;;;6066002;23;20245;-90
2023/10/19 05:28:04;;;;;;;30.48;15.57;;;;;;;;;;6066717;23;20195;-95
2023/10/19 05:31:11;;;;;;;33.28;16.77;;;;;;;;;;6082484;23;20182;-94
2023/10/19 05:34:19;;;;;;;36.58;15.23;;;;;;;;;;6072041;23;20178;-92
2023/10/19 05:37:29;;;;;;;31.55;15.30;;;;;;;;;;6069153;23;20171;-91
2023/10/19 05:40:35;;;;;;;33.10;15.35;;;;;;;;;;6071676;23;20238;-91
2023/10/19 05:43:41;;;;;;;30.00;15.43;;;;;;;;;;6084563;23;20178;-92
2023/10/19 05:46:47;;;;;;;31.67;15.35;;;;;;;;;;6089073;23;20183;-92
2023/10/19 05:49:54;;;;;;;31.17;14.85;;;;;;;;;;6084779;23;20180;-91
2023/10/19 05:52:59;;;;;;;25.67;13.98;;;;;;;;;;6084293;23;20210;-93
2023/10/19 05:56:06;;;;;;;27.52;13.63;;;;;;;;;;6066228;23;20167;-91
2023/10/19 05:59:11;;;;;;;27.02;13.95;;;;;;;;;;6084355;23;20203;-91
2023/10/19 06:02:19;;;;;;;29.83;15.07;;;;;;;;;;6086872;23;20243;-92
2023/10/19 06:05:33;;;;;;;29.38;14.88;;;;;;;;;;6085888;23;20179;-92
2023/10/19 06:08:39;;;;;;;30.02;15.80;;;;;;;;;;6069444;23;20196;-93
2023/10/19 06:11:45;;;;;;;27.75;14.77;;;;;;;;;;6085091;23;20171;-92
2023/10/19 06:14:50;;;;;;;41.05;19.67;;;;;;;;;;6064141;23;20493;-91
2023/10/19 06:17:55;;;;;;;27.80;15.05;;;;;;;;;;6081406;23;20174;-94
2023/10/19 06:21:02;;;;;;;33.58;15.35;;;;;;;;;;6080270;23;20167;-92
2023/10/19 06:24:08;;;;;;;33.30;15.18;;;;;;;;;;6081228;23;20218;-94
2023/10/19 06:27:13;;;;;;;31.88;15.75;;;;;;;;;;6080669;23;20273;-93
2023/10/19 06:30:21;;;;;;;31.48;15.48;;;;;;;;;;6081439;23;20175;-92
2023/10/19 06:33:26;;;;;;;28.65;14.07;;;;;;;;;;6064934;23;20197;-92
2023/10/19 06:36:32;;;;;;;34.88;15.57;;;;;;;;;;6080089;23;20169;-91
2023/10/19 06:39:41;;;;;;;30.77;15.40;;;;;;;;;;6062795;23;20170;-91
2023/10/19 06:42:47;;;;;;;35.65;15.98;;;;;;;;;;6062989;23;20223;-93
2023/10/19 06:45:52;;;;;;;31.40;16.33;;;;;;;;;;6063109;23;20685;-92
2023/10/19 06:49:00;;;;;;;27.20;14.95;;;;;;;;;;6079359;23;20258;-92
2023/10/19 06:52:11;;;;;;;28.52;14.73;;;;;;;;;;6080384;23;20217;-92
2023/10/19 06:55:19;;;;;;;37.33;19.63;;;;;;;;;;6063737;23;20154;-90
2023/10/19 06:58:26;;;;;;;31.40;16.05;;;;;;;;;;6064412;23;20174;-91
2023/10/19 07:01:32;;;;;;;31.88;15.90;;;;;;;;;;6065128;23;20250;-92
2023/10/19 07:04:40;;;;;;;30.05;16.25;;;;;;;;;;6066176;23;20179;-92
2023/10/19 07:07:51;;;;;;;29.73;15.93;;;;;;;;;;6082040;23;20175;-90
2023/10/19 07:10:57;;;;;;;32.67;16.02;;;;;;;;;;6079115;23;20194;-93
2023/10/19 07:14:03;;;;;;;31.50;15.65;;;;;;;;;;6080878;23;20198;-95
2023/10/19 07:17:10;;;;;;;35.05;15.20;;;;;;;;;;6064224;23;20256;-93
2023/10/19 07:20:25;;;;;;;29.17;15.30;;;;;;;;;;6062340;23;20166;-93
2023/10/19 07:23:31;;;;;;;26.75;14.32;;;;;;;;;;6064107;23;20162;-91
2023/10/19 07:26:43;;;;;;;30.35;14.73;;;;;;;;;;6082211;23;20623;-91
2023/10/19 07:29:48;;;;;;;27.65;14.35;;;;;;;;;;6081645;23;20630;-92
2023/10/19 07:32:58;;;;;;;28.10;14.82;;;;;;;;;;6083355;23;20528;-93
2023/10/19 07:36:08;;;;;;;28.25;14.90;;;;;;;;;;6066256;23;20174;-93
2023/10/19 07:39:19;;;;;;;30.08;14.32;;;;;;;;;;6067626;23;20215;-91
2023/10/19 07:42:24;;;;;;;117.25;41.15;;;;;;;;;;6062958;23;20563;-92
2023/10/19 07:45:31;;;;;;;32.85;16.65;;;;;;;;;;6066509;23;20174;-92
2023/10/19 07:48:38;;;;;;;27.05;14.27;;;;;;;;;;6082668;23;20222;-92
2023/10/19 07:51:49;;;;;;;30.42;14.93;;;;;;;;;;6066567;23;20202;-92
2023/10/19 07:54:57;;;;;;;28.15;14.38;;;;;;;;;;6084323;23;20178;-93
2023/10/19 07:58:03;;;;;;;24.23;13.75;;;;;;;;;;6081238;23;20149;-93
2023/10/19 08:01:09;;;;;;;26.08;13.85;;;;;;;;;;6083023;23;20294;-92
2023/10/19 08:04:14;;;;;;;31.02;14.23;;;;;;;;;;6080970;23;20158;-93
2023/10/19 08:07:19;;;;;;;27.27;13.68;;;;;;;;;;6064714;23;20174;-91
2023/10/19 08:10:27;;;;;;;26.50;14.73;;;;;;;;;;6079494;23;20192;-93
2023/10/19 08:13:33;;;;;;;29.70;14.25;;;;;;;;;;6080723;23;20194;-91
2023/10/19 08:16:38;;;;;;;34.70;16.73;;;;;;;;;;6078600;23;20170;-92
2023/10/19 08:19:43;;;;;;;27.08;14.88;;;;;;;;;;6079016;23;20169;-91
2023/10/19 08:22:48;;;;;;;31.13;14.60;;;;;;;;;;6080628;23;20249;-92
2023/10/19 08:25:55;;;;;;;30.15;14.23;;;;;;;;;;6081735;23;20186;-92
2023/10/19 08:29:00;;;;;;;29.63;15.10;;;;;;;;;;6082202;23;20162;-91
2023/10/19 08:32:06;;;;;;;29.48;15.23;;;;;;;;;;6081227;23;20171;-91
2023/10/19 08:35:11;;;;;;;44.00;16.55;;;;;;;;;;6080307;23;20222;-93
2023/10/19 08:38:17;;;;;;;29.73;15.77;;;;;;;;;;6064035;23;20155;-92
2023/10/19 08:41:24;;;;;;;40.40;19.80;;;;;;;;;;6065372;23;20158;-93
2023/10/19 08:44:30;;;;;;;27.52;15.00;;;;;;;;;;6083341;23;20178;-91
2023/10/19 08:47:36;;;;;;;27.90;14.30;;;;;;;;;;6066223;23;20170;-91
2023/10/19 08:50:43;;;;;;;27.90;14.70;;;;;;;;;;6080140;23;20224;-92
2023/10/19 08:53:48;;;;;;;27.50;13.40;;;;;;;;;;6065432;23;20251;-91
2023/10/19 08:56:55;;;;;;;28.05;13.95;;;;;;;;;;6081097;23;20199;-92
2023/10/19 09:00:02;;;;;;;23.80;13.30;;;;;;;;;;6082173;23;20170;-87
2023/10/19 09:03:08;;;;;;;28.38;14.13;;;;;;;;;;6087264;23;20155;-93
2023/10/19 09:06:15;;;;;;;25.08;13.88;;;;;;;;;;6066951;23;20200;-92
2023/10/19 09:09:20;;;;;;;27.60;14.55;;;;;;;;;;6065489;23;20246;-93
2023/10/19 09:12:28;;;;;;;22.98;13.30;;;;;;;;;;6063380;23;20170;-92
2023/10/19 09:15:33;;;;;;;28.98;14.13;;;;;;;;;;6083981;23;20170;-92
2023/10/19 09:18:39;;;;;;;29.27;13.90;;;;;;;;;;6083144;23;20171;-92
2023/10/19 09:21:46;;;;;;;30.27;13.68;;;;;;;;;;6083046;23;20286;-90
2023/10/19 09:24:53;;;;;;;23.90;12.68;;;;;;;;;;6083184;23;20254;-92
2023/10/19 09:28:00;;;;;;;26.52;12.57;;;;;;;;;;6067121;23;20659;-91
2023/10/19 09:31:09;;;;;;;24.08;13.88;;;;;;;;;;6085078;23;20263;-92
2023/10/19 09:34:31;;;;;;;23.45;12.60;;;;;;;;;;6062156;23;20258;-91
2023/10/19 09:37:43;;;;;;;25.67;13.43;;;;;;;;;;6068485;23;20159;-93
2023/10/19 09:40:49;;;;;;;24.55;12.82;;;;;;;;;;6082502;23;20254;-91
2023/10/19 09:44:02;;;;;;;24.52;13.57;;;;;;;;;;6064454;23;20171;-91
2023/10/19 09:47:12;;;;;;;26.00;13.52;;;;;;;;;;6065357;23;20180;-93
2023/10/19 09:50:18;;;;;;;24.75;12.90;;;;;;;;;;6065604;23;20204;-93
2023/10/19 09:53:25;;;;;;;23.13;12.63;;;;;;;;;;6079231;23;20777;-92
2023/10/19 09:56:41;;;;;;;28.20;13.10;;;;;;;;;;6086144;23;20175;-92
2023/10/19 09:59:51;;;;;;;24.90;12.85;;;;;;;;;;6079484;23;20631;-94
2023/10/19 10:02:56;;;;;;;26.75;12.90;;;;;;;;;;6081678;23;20170;-92
2023/10/19 10:06:02;;;;;;;22.52;12.23;;;;;;;;;;6083869;23;20154;-92
2023/10/19 10:09:11;;;;;;;26.38;12.40;;;;;;;;;;6063862;23;20247;-93
2023/10/19 10:12:34;;;;;;;23.35;12.60;;;;;;;;;;6064415;23;20166;-92
2023/10/19 10:15:50;;;;;;;25.98;12.10;;;;;;;;;;6067298;23;20176;-91
2023/10/19 10:19:00;;;;;;;24.88;11.35;;;;;;;;;;6065989;23;20154;-93
2023/10/19 10:22:07;;;;;;;24.10;11.88;;;;;;;;;;6084911;23;20155;-90
2023/10/19 10:25:27;;;;;;;23.17;12.00;;;;;;;;;;6069144;23;20179;-90
2023/10/19 10:28:33;;;;;;;25.20;12.68;;;;;;;;;;6084523;23;20163;-92
2023/10/19 10:31:44;;;;;;;20.35;12.30;;;;;;;;;;6083799;23;20217;-91
2023/10/19 10:38:11;;;;;;;22.98;12.40;;;;;;;;;;6069036;23;20167;-93
2023/10/19 10:41:26;;;;;;;25.70;12.35;;;;;;;;;;6071523;23;20171;-93
2023/10/19 10:44:39;;;;;;;24.23;12.45;;;;;;;;;;6085163;23;20154;-91
2023/10/19 10:47:46;;;;;;;20.33;11.45;;;;;;;;;;6067282;23;20158;-92
2023/10/19 10:50:52;;;;;;;19.35;11.25;;;;;;;;;;6085271;23;20510;-93
2023/10/19 10:53:57;;;;;;;29.67;12.85;;;;;;;;;;6083662;23;20190;-93
2023/10/19 10:57:02;;;;;;;20.83;12.00;;;;;;;;;;6084039;23;20170;-91
2023/10/19 11:00:09;;;;;;;21.33;11.82;;;;;;;;;;6083159;23;20175;-92
2023/10/19 11:03:21;;;;;;;21.73;11.23;;;;;;;;;;6069612;23;20168;-91
2023/10/19 11:06:27;;;;;;;17.08;10.60;;;;;;;;;;6070343;23;20170;-92
2023/10/19 11:09:45;;;;;;;17.73;10.88;;;;;;;;;;6086058;23;20504;-92
2023/10/19 11:12:51;;;;;;;18.77;10.57;;;;;;;;;;6086785;23;20203;-93
2023/10/19 11:15:57;;;;;;;20.08;10.50;;;;;;;;;;6086837;23;20174;-92
2023/10/19 11:19:05;;;;;;;19.67;11.18;;;;;;;;;;6086745;23;20243;-90
2023/10/19 11:22:12;;;;;;;16.90;10.50;;;;;;;;;;6086641;23;20174;-90
2023/10/19 11:25:21;;;;;;;16.45;9.57;;;;;;;;;;6085957;23;20218;-91
2023/10/19 11:28:29;;;;;;;18.42;9.48;;;;;;;;;;6086309;23;20224;-91
2023/10/19 11:31:39;;;;;;;15.00;9.15;;;;;;;;;;6084145;23;20174;-94
2023/10/19 11:38:06;;;;;;;15.00;8.70;;;;;;;;;;6068264;23;20183;-92
2023/10/19 11:41:12;;;;;;;18.33;9.07;;;;;;;;;;6086660;23;20223;-93
2023/10/19 11:44:22;;;;;;;15.48;9.00;;;;;;;;;;6068866;23;20500;-92
2023/10/19 11:47:27;;;;;;;13.57;8.13;;;;;;;;;;6085018;23;20162;-94
2023/10/19 11:50:36;;;;;;;16.25;9.20;;;;;;;;;;6083846;23;20174;-93
2023/10/19 11:53:42;;;;;;;17.13;9.13;;;;;;;;;;6068008;23;20224;-92
2023/10/19 11:56:48;;;;;;;16.13;8.35;;;;;;;;;;6067857;23;20154;-93
2023/10/19 11:59:54;;;;;;;15.57;9.35;;;;;;;;;;6083844;23;20206;-93
2023/10/19 12:02:59;;;;;;;19.13;9.43;;;;;;;;;;6084415;23;20223;-91
2023/10/19 12:06:06;;;;;;;19.33;10.73;;;;;;;;;;6086808;23;20218;-91
2023/10/19 12:09:15;;;;;;;20.35;11.10;;;;;;;;;;6065471;23;20192;-92
2023/10/19 12:12:20;;;;;;;18.42;10.02;;;;;;;;;;6068634;23;20188;-91
2023/10/19 12:15:25;;;;;;;19.30;10.35;;;;;;;;;;6084367;23;20206;-91
2023/10/19 12:18:30;;;;;;;23.00;11.27;;;;;;;;;;6083295;23;20170;-90
2023/10/19 12:21:37;;;;;;;20.98;11.68;;;;;;;;;;6084139;23;20242;-92
2023/10/19 12:24:43;;;;;;;21.20;12.25;;;;;;;;;;6083623;23;20222;-89
2023/10/19 12:27:51;;;;;;;22.52;12.68;;;;;;;;;;6067026;23;20626;-90
2023/10/19 12:30:57;;;;;;;23.10;13.32;;;;;;;;;;6083806;23;20174;-91
2023/10/19 12:34:02;;;;;;;22.30;13.48;;;;;;;;;;6066003;23;20250;-90
2023/10/19 12:37:22;;;;;;;23.85;13.50;;;;;;;;;;6085551;23;20166;-89
2023/10/19 12:40:28;;;;;;;24.13;14.75;;;;;;;;;;6084568;23;20166;-93
2023/10/19 12:43:34;;;;;;;25.95;15.48;;;;;;;;;;6068310;23;20170;-90
2023/10/19 12:46:40;;;;;;;28.52;14.27;;;;;;;;;;6084794;23;20225;-91
2023/10/19 12:49:46;;;;;;;26.38;14.55;;;;;;;;;;6065340;23;20170;-88
2023/10/19 12:52:55;;;;;;;31.23;15.05;;;;;;;;;;6083356;23;20199;-92
2023/10/19 12:56:00;;;;;;;25.50;14.45;;;;;;;;;;6066035;23;20178;-93
2023/10/19 12:59:06;;;;;;;29.52;14.02;;;;;;;;;;6065996;23;20174;-91
2023/10/19 13:23:34;;;;;;;28.35;14.70;;;;;;;;;;6056544;23;20183;-93
2023/10/19 13:26:42;;;;;;;25.80;15.07;;;;;;;;;;6038823;23;20175;-92
2023/10/19 13:29:47;;;;;;;23.10;13.60;;;;;;;;;;6039037;23;20179;-91
2023/10/19 13:32:53;;;;;;;25.27;14.23;;;;;;;;;;6055584;23;20166;-91
2023/10/19 13:35:58;;;;;;;25.73;13.32;;;;;;;;;;6038581;23;20208;-95
2023/10/19 13:39:06;;;;;;;22.00;13.52;;;;;;;;;;6052954;23;20167;-93
2023/10/19 13:42:12;;;;;;;27.25;14.02;;;;;;;;;;6056448;23;20177;-94
2023/10/19 13:45:18;;;;;;;23.08;13.05;;;;;;;;;;6039967;23;20247;-91
2023/10/19 13:48:23;;;;;;;21.98;13.07;;;;;;;;;;6054986;23;20219;-92
2023/10/19 13:51:29;;;;;;;19.80;12.15;;;;;;;;;;6053019;23;20689;-93
2023/10/19 13:54:35;;;;;;;21.38;11.70;;;;;;;;;;6038896;23;20279;-92
2023/10/19 13:57:42;;;;;;;27.95;13.23;;;;;;;;;;6056925;23;20246;-93
2023/10/19 14:00:49;;;;;;;22.65;12.10;;;;;;;;;;6057472;23;20176;-93
2023/10/19 14:03:55;;;;;;;22.73;11.60;;;;;;;;;;6042534;23;20204;-93
2023/10/19 14:07:02;;;;;;;20.00;12.15;;;;;;;;;;6042010;23;20239;-93
2023/10/19 14:13:33;;;;;;;22.38;11.63;;;;;;;;;;6057931;23;20182;-93
2023/10/19 14:16:39;;;;;;;21.55;11.93;;;;;;;;;;6058011;23;20813;-94
2023/10/19 14:19:51;;;;;;;24.77;12.02;;;;;;;;;;6059696;23;20195;-94
2023/10/19 14:23:00;;;;;;;24.75;11.55;;;;;;;;;;6061959;23;20168;-94
2023/10/19 15:13:02;;;;;;;20.65;10.52;;;;;;;;;;6046321;23;20187;-92
2023/10/19 15:16:12;;;;;;;17.48;10.07;;;;;;;;;;6071895;23;20254;-93
2023/10/19 15:19:18;;;;;;;20.35;10.45;;;;;;;;;;6053707;23;20235;-93
2023/10/19 15:22:23;;;;;;;19.63;10.38;;;;;;;;;;6070375;23;20610;-92
2023/10/19 15:25:28;;;;;;;37.78;13.57;;;;;;;;;;6085496;23;20173;-92
2023/10/19 15:28:40;;;;;;;22.80;11.05;;;;;;;;;;6082862;23;20171;-90
2023/10/19 15:31:46;;;;;;;22.38;11.27;;;;;;;;;;6085144;23;20187;-94
2023/10/19 15:34:56;;;;;;;23.90;11.38;;;;;;;;;;6068030;23;20231;-94
2023/10/19 15:38:01;;;;;;;19.00;11.20;;;;;;;;;;6086487;23;20171;-93
2023/10/19 15:41:07;;;;;;;25.13;12.23;;;;;;;;;;6070081;23;20174;-91
2023/10/19 15:44:14;;;;;;;22.65;11.48;;;;;;;;;;6086076;23;20238;-93
2023/10/19 15:47:21;;;;;;;23.50;11.13;;;;;;;;;;6069189;23;20235;-92
2023/10/19 15:50:27;;;;;;;21.77;10.85;;;;;;;;;;6086726;23;20198;-95
2023/10/19 15:53:34;;;;;;;19.98;10.85;;;;;;;;;;6086116;23;20232;-93
2023/10/19 15:56:40;;;;;;;21.38;11.23;;;;;;;;;;6086099;23;20179;-92
2023/10/19 16:03:20;;;;;;;21.92;12.10;;;;;;;;;;6072160;23;20226;-92
2023/10/19 16:06:28;;;;;;;21.38;12.32;;;;;;;;;;6087914;23;20175;-93
2023/10/19 16:09:34;;;;;;;25.30;13.63;;;;;;;;;;6086811;23;20199;-93
2023/10/19 16:12:40;;;;;;;27.23;13.95;;;;;;;;;;6070832;23;20175;-92
2023/10/19 16:15:52;;;;;;;28.50;14.52;;;;;;;;;;6070384;23;20313;-92
2023/10/19 16:18:58;;;;;;;25.25;13.40;;;;;;;;;;6083861;23;20219;-91
2023/10/19 16:22:05;;;;;;;22.95;12.82;;;;;;;;;;6066923;23;20169;-90
2023/10/19 16:25:10;;;;;;;45.00;19.52;;;;;;;;;;6067401;23;20199;-93
2023/10/19 16:28:20;;;;;;;40.47;20.00;;;;;;;;;;6083866;23;20275;-92
2023/10/19 16:31:27;;;;;;;34.95;17.58;;;;;;;;;;6084581;23;20175;-91
2023/10/19 16:34:34;;;;;;;22.92;12.60;;;;;;;;;;6084947;23;20198;-92
2023/10/19 16:37:41;;;;;;;25.88;13.57;;;;;;;;;;6088039;23;20236;-91
2023/10/19 16:40:46;;;;;;;28.48;13.90;;;;;;;;;;6083311;23;20165;-93
2023/10/19 16:43:52;;;;;;;28.42;14.27;;;;;;;;;;6084454;23;20167;-93
2023/10/19 16:46:59;;;;;;;32.03;15.73;;;;;;;;;;6083224;23;20170;-91
2023/10/19 16:50:08;;;;;;;28.40;15.18;;;;;;;;;;6084887;23;20177;-91
2023/10/19 16:53:13;;;;;;;30.67;15.95;;;;;;;;;;6067797;23;20178;-91
2023/10/19 16:56:19;;;;;;;30.15;16.08;;;;;;;;;;6086898;23;20206;-92
2023/10/19 16:59:26;;;;;;;39.47;17.42;;;;;;;;;;6083754;23;20189;-91
2023/10/19 17:02:42;;;;;;;34.30;16.85;;;;;;;;;;6084494;23;20179;-91
2023/10/19 17:05:48;;;;;;;29.67;15.57;;;;;;;;;;6081451;23;20215;-87
2023/10/19 17:08:54;;;;;;;28.50;14.98;;;;;;;;;;6082592;23;20199;-91
2023/10/19 17:12:00;;;;;;;30.55;14.68;;;;;;;;;;6088290;23;20247;-93
2023/10/19 17:15:08;;;;;;;27.85;15.93;;;;;;;;;;6084724;23;20533;-92
2023/10/19 17:18:16;;;;;;;33.28;17.27;;;;;;;;;;6086233;23;20199;-92
2023/10/19 17:21:21;;;;;;;33.53;17.50;;;;;;;;;;6086530;23;20170;-93
2023/10/19 17:24:28;;;;;;;37.30;19.30;;;;;;;;;;6083623;23;20170;-92
2023/10/19 17:27:33;;;;;;;35.78;16.55;;;;;;;;;;6085960;23;20185;-95
2023/10/19 17:30:39;;;;;;;33.35;15.75;;;;;;;;;;6069816;23;20275;-91
2023/10/19 17:33:47;;;;;;;35.35;17.85;;;;;;;;;;6085024;23;20203;-94
2023/10/19 17:36:53;;;;;;;31.67;17.13;;;;;;;;;;6087602;23;20201;-93
2023/10/19 17:39:59;;;;;;;32.58;17.05;;;;;;;;;;6084416;23;20175;-92
2023/10/19 17:43:07;;;;;;;33.70;17.10;;;;;;;;;;6066848;23;20278;-92
2023/10/19 17:46:13;;;;;;;37.88;18.70;;;;;;;;;;6083406;23;20174;-94
2023/10/19 17:49:22;;;;;;;31.15;16.58;;;;;;;;;;6080766;23;20222;-91
2023/10/19 18:13:21;;;;;;;41.70;17.40;;;;;;;;;;6013953;23;20209;-95
2023/10/19 18:16:26;;;;;;;30.52;16.73;;;;;;;;;;6015792;23;20199;-91
2023/10/19 18:19:32;;;;;;;31.10;16.48;;;;;;;;;;6016022;23;20657;-91
2023/10/19 18:22:39;;;;;;;31.48;16.23;;;;;;;;;;6015733;23;20172;-91
2023/10/19 18:25:47;;;;;;;30.38;16.25;;;;;;;;;;6015386;23;20156;-91
2023/10/19 18:29:03;;;;;;;35.70;18.25;;;;;;;;;;6000821;23;20164;-91
2023/10/19 18:32:18;;;;;;;30.17;17.00;;;;;;;;;;6034815;23;20193;-92
2023/10/19 18:35:24;;;;;;;26.65;14.43;;;;;;;;;;6015350;23;20199;-92
2023/10/19 18:38:36;;;;;;;27.45;14.75;;;;;;;;;;6018617;23;20152;-92
2023/10/19 18:41:42;;;;;;;33.22;18.02;;;;;;;;;;6017324;23;20217;-91
2023/10/19 18:45:01;;;;;;;35.15;19.70;;;;;;;;;;6017459;23;20624;-90
2023/10/19 18:48:10;;;;;;;42.60;20.65;;;;;;;;;;6018050;23;20177;-90
2023/10/19 18:51:21;;;;;;;57.85;28.45;;;;;;;;;;6034325;23;20176;-90
2023/10/19 18:54:28;;;;;;;35.22;19.58;;;;;;;;;;6017006;23;20185;-92
2023/10/19 18:57:34;;;;;;;29.80;17.88;;;;;;;;;;6016785;23;20183;-91
2023/10/19 19:00:46;;;;;;;35.00;17.45;;;;;;;;;;6016452;23;20202;-92
2023/10/19 19:03:58;;;;;;;34.28;18.92;;;;;;;;;;6015090;23;20160;-92
2023/10/19 19:10:32;;;;;;;29.98;17.05;;;;;;;;;;6018517;23;20181;-95
2023/10/19 19:13:43;;;;;;;33.83;17.77;;;;;;;;;;6017300;23;20183;-93
2023/10/19 19:23:50;;;;;;;37.05;19.83;;;;;;;;;;6017854;23;20184;-93
2023/10/19 19:37:13;;;;;;;36.33;19.02;;;;;;;;;;6016123;23;20664;-92
2023/10/19 19:40:22;;;;;;;38.65;18.98;;;;;;;;;;6016200;23;20163;-93
2023/10/19 19:43:28;;;;;;;36.75;20.13;;;;;;;;;;6014781;23;20180;-92
2023/10/19 19:46:35;;;;;;;41.90;20.15;;;;;;;;;;6014746;23;20250;-93
2023/10/19 19:49:40;;;;;;;34.78;18.65;;;;;;;;;;6015320;23;20175;-92
2023/10/19 19:52:49;;;;;;;34.15;18.52;;;;;;;;;;6010771;23;20167;-92
2023/10/19 19:55:59;;;;;;;36.40;19.95;;;;;;;;;;6012727;23;20203;-93
2023/10/19 19:59:08;;;;;;;38.67;19.48;;;;;;;;;;6012371;23;20176;-93
2023/10/19 20:02:14;;;;;;;38.30;19.13;;;;;;;;;;6011773;23;20181;-93
2023/10/19 20:05:22;;;;;;;33.08;17.85;;;;;;;;;;6016023;23;20224;-93
2023/10/19 20:08:33;;;;;;;34.60;18.30;;;;;;;;;;6009446;23;20167;-90
2023/10/19 20:11:40;;;;;;;37.97;17.95;;;;;;;;;;6011293;23;20272;-93
2023/10/19 20:14:46;;;;;;;34.50;18.40;;;;;;;;;;6010117;23;20176;-94
2023/10/19 20:17:54;;;;;;;43.65;19.60;;;;;;;;;;6012425;23;20180;-93
2023/10/19 20:21:00;;;;;;;35.35;20.17;;;;;;;;;;6014781;23;20171;-92